createdAt,value
2023-10-20T00:00:02.738Z,23.80
2023-10-20T00:01:02.754Z,21.80
2023-10-20T00:02:02.895Z,21.90
2023-10-20T00:03:02.741Z,23.40
2023-10-20T00:04:02.730Z,23.90
2023-10-20T00:05:02.739Z,26.60
2023-10-20T00:06:02.680Z,23.40
2023-10-20T00:07:02.685Z,20.30
2023-10-20T00:08:02.701Z,23.40
2023-10-20T00:09:02.644Z,24.80
2023-10-20T00:10:02.631Z,23.50
2023-10-20T00:11:02.642Z,23.80
2023-10-20T00:12:02.628Z,24.10
2023-10-20T00:13:02.599Z,26.70
2023-10-20T00:14:02.605Z,22.70
2023-10-20T00:15:02.576Z,22.10
2023-10-20T00:16:02.635Z,26.20
2023-10-20T00:17:02.603Z,25.80
2023-10-20T00:18:02.807Z,24.40
2023-10-20T00:19:02.553Z,24.30
2023-10-20T00:20:02.582Z,26.00
2023-10-20T00:21:02.529Z,22.20
2023-10-20T00:22:02.493Z,25.20
2023-10-20T00:23:02.535Z,25.70
2023-10-20T00:24:02.472Z,24.80
2023-10-20T00:25:02.483Z,22.20
2023-10-20T00:26:02.467Z,23.00
2023-10-20T00:27:02.442Z,24.30
2023-10-20T00:28:02.436Z,23.00
2023-10-20T00:29:02.448Z,26.00
2023-10-20T00:30:02.413Z,22.90
2023-10-20T00:31:02.412Z,24.20
2023-10-20T00:32:02.420Z,25.50
2023-10-20T00:33:02.419Z,26.30
2023-10-20T00:34:02.361Z,25.10
2023-10-20T00:35:02.400Z,27.50
2023-10-20T00:36:02.353Z,25.30
2023-10-20T00:37:02.330Z,25.30
2023-10-20T00:38:02.427Z,23.50
2023-10-20T00:39:02.310Z,26.50
2023-10-20T00:40:02.321Z,23.40
2023-10-20T00:41:02.300Z,26.80
2023-10-20T00:42:02.274Z,23.90
2023-10-20T00:43:02.269Z,25.70
2023-10-20T00:44:02.294Z,23.20
2023-10-20T00:45:02.258Z,25.70
2023-10-20T00:46:02.286Z,27.90
2023-10-20T00:47:02.259Z,23.30
2023-10-20T00:48:02.223Z,25.20
2023-10-20T00:49:02.228Z,24.70
2023-10-20T00:50:02.255Z,22.60
2023-10-20T00:51:02.179Z,24.60
2023-10-20T00:52:02.162Z,28.00
2023-10-20T00:53:02.213Z,24.80
2023-10-20T00:54:02.156Z,25.70
2023-10-20T00:55:02.142Z,22.90
2023-10-20T00:56:02.199Z,25.80
2023-10-20T00:57:02.108Z,25.30
2023-10-20T00:58:02.093Z,28.10
2023-10-20T00:59:02.126Z,25.50
2023-10-20T01:00:02.070Z,25.30
2023-10-20T01:01:02.105Z,24.30
2023-10-20T01:02:02.088Z,24.70
2023-10-20T01:03:02.174Z,23.70
2023-10-20T01:04:02.121Z,25.00
2023-10-20T01:05:02.087Z,24.50
2023-10-20T01:06:02.005Z,26.00
2023-10-20T01:07:02.012Z,26.30
2023-10-20T01:08:02.052Z,25.90
2023-10-20T01:09:02.014Z,23.50
2023-10-20T01:10:01.957Z,24.30
2023-10-20T01:11:01.978Z,25.70
2023-10-20T01:12:01.947Z,25.70
2023-10-20T01:13:01.949Z,28.90
2023-10-20T01:14:01.937Z,25.40
2023-10-20T01:15:01.918Z,23.50
2023-10-20T01:16:01.935Z,25.30
2023-10-20T01:17:01.959Z,23.70
2023-10-20T01:18:01.941Z,26.30
2023-10-20T01:19:01.862Z,26.40
2023-10-20T01:20:01.867Z,25.90
2023-10-20T01:21:01.847Z,21.90
2023-10-20T01:22:01.829Z,26.00
2023-10-20T01:23:01.831Z,24.30
2023-10-20T01:24:01.806Z,23.40
2023-10-20T01:25:01.810Z,25.80
2023-10-20T01:26:01.805Z,25.20
2023-10-20T01:27:01.785Z,27.10
2023-10-20T01:28:01.754Z,24.70
2023-10-20T01:29:01.770Z,22.40
2023-10-20T01:30:01.735Z,27.90
2023-10-20T01:31:01.737Z,24.10
2023-10-20T01:32:01.760Z,23.90
2023-10-20T01:33:01.817Z,22.70
2023-10-20T01:34:01.716Z,24.80
2023-10-20T01:35:01.736Z,25.40
2023-10-20T01:36:01.715Z,24.70
2023-10-20T01:37:01.661Z,27.30
2023-10-20T01:38:01.680Z,23.40
2023-10-20T01:39:01.650Z,25.00
2023-10-20T01:40:01.638Z,25.40
2023-10-20T01:41:01.664Z,24.40
2023-10-20T01:42:01.615Z,23.00
2023-10-20T01:43:01.595Z,27.50
2023-10-20T01:44:01.597Z,24.30
2023-10-20T01:45:01.588Z,24.30
2023-10-20T01:46:01.569Z,23.90
2023-10-20T01:47:01.652Z,24.50
2023-10-20T01:48:01.601Z,24.30
2023-10-20T01:49:01.536Z,23.00
2023-10-20T01:50:01.547Z,25.50
2023-10-20T01:51:01.506Z,25.50
2023-10-20T01:52:01.502Z,23.50
2023-10-20T01:53:01.512Z,26.20
2023-10-20T01:54:01.480Z,26.70
2023-10-20T01:55:01.572Z,26.60
2023-10-20T01:56:01.475Z,24.40
2023-10-20T01:57:01.441Z,26.40
2023-10-20T01:58:01.431Z,26.80
2023-10-20T01:59:01.445Z,26.20
2023-10-20T02:00:01.416Z,22.90
2023-10-20T02:01:01.477Z,22.10
2023-10-20T02:02:01.447Z,23.10
2023-10-20T02:03:01.520Z,23.10
2023-10-20T02:04:01.427Z,23.70
2023-10-20T02:05:01.372Z,24.20
2023-10-20T02:06:01.336Z,26.90
2023-10-20T02:07:01.329Z,25.20
2023-10-20T02:08:01.329Z,23.20
2023-10-20T02:09:01.313Z,28.00
2023-10-20T02:10:01.308Z,22.80
2023-10-20T02:11:01.424Z,22.60
2023-10-20T02:12:01.281Z,24.50
2023-10-20T02:13:01.259Z,25.10
2023-10-20T02:14:01.293Z,24.70
2023-10-20T02:15:01.234Z,23.30
2023-10-20T02:16:01.235Z,25.50
2023-10-20T02:17:01.312Z,25.80
2023-10-20T02:18:01.283Z,28.70
2023-10-20T02:19:01.206Z,24.60
2023-10-20T02:20:01.220Z,23.20
2023-10-20T02:21:01.189Z,25.90
2023-10-20T02:22:01.171Z,25.20
2023-10-20T02:23:01.178Z,23.00
2023-10-20T02:24:01.143Z,24.50
2023-10-20T02:25:01.137Z,23.90
2023-10-20T02:26:01.308Z,22.40
2023-10-20T02:27:01.111Z,28.70
2023-10-20T02:28:01.410Z,24.20
2023-10-20T02:29:01.100Z,26.60
2023-10-20T02:30:01.092Z,23.00
2023-10-20T02:31:01.107Z,23.10
2023-10-20T02:32:01.094Z,25.80
2023-10-20T02:33:01.059Z,23.90
2023-10-20T02:34:01.028Z,24.50
2023-10-20T02:35:01.029Z,22.90
2023-10-20T02:36:01.015Z,24.30
2023-10-20T02:37:00.998Z,23.20
2023-10-20T02:38:01.019Z,25.20
2023-10-20T02:39:00.972Z,25.20
2023-10-20T02:40:00.978Z,25.70
2023-10-20T02:41:00.981Z,24.50
2023-10-20T02:42:00.950Z,26.20
2023-10-20T02:43:00.919Z,24.30
2023-10-20T02:44:00.924Z,25.50
2023-10-20T02:45:00.917Z,26.40
2023-10-20T02:46:00.895Z,23.40
2023-10-20T02:47:00.969Z,25.50
2023-10-20T02:48:00.905Z,23.60
2023-10-20T02:49:00.855Z,21.60
2023-10-20T02:50:00.874Z,23.10
2023-10-20T02:51:00.847Z,24.60
2023-10-20T02:52:00.840Z,25.20
2023-10-20T02:53:00.817Z,24.10
2023-10-20T02:54:00.826Z,24.30
2023-10-20T02:55:00.790Z,25.30
2023-10-20T02:56:00.807Z,24.50
2023-10-20T02:57:00.776Z,23.70
2023-10-20T02:58:00.763Z,26.70
2023-10-20T02:59:00.783Z,25.30
2023-10-20T03:00:00.753Z,27.50
2023-10-20T03:01:00.772Z,24.50
2023-10-20T03:02:00.746Z,24.90
2023-10-20T03:03:00.856Z,24.10
2023-10-20T03:04:00.786Z,27.70
2023-10-20T03:05:01.123Z,21.80
2023-10-20T03:06:00.681Z,25.40
2023-10-20T03:07:00.659Z,23.70
2023-10-20T03:08:00.752Z,22.10
2023-10-20T03:09:00.631Z,27.90
2023-10-20T03:10:00.858Z,28.40
2023-10-20T03:11:00.639Z,21.70
2023-10-20T03:12:00.622Z,23.80
2023-10-20T03:13:00.592Z,25.60
2023-10-20T03:14:00.641Z,26.70
2023-10-20T03:15:01.006Z,22.70
2023-10-20T03:16:00.571Z,24.70
2023-10-20T03:17:00.660Z,25.00
2023-10-20T03:18:00.655Z,22.90
2023-10-20T03:19:00.527Z,25.20
2023-10-20T03:20:00.568Z,23.10
2023-10-20T03:21:00.562Z,22.60
2023-10-20T03:22:00.490Z,22.70
2023-10-20T03:23:00.529Z,24.20
2023-10-20T03:24:00.480Z,24.40
2023-10-20T03:25:00.470Z,24.80
2023-10-20T03:26:00.463Z,26.40
2023-10-20T03:27:00.490Z,23.10
2023-10-20T03:28:00.421Z,23.40
2023-10-20T03:29:00.426Z,24.20
2023-10-20T03:30:00.399Z,25.30
2023-10-20T03:31:00.436Z,24.90
2023-10-20T03:32:00.374Z,25.60
2023-10-20T03:33:00.387Z,24.50
2023-10-20T03:34:00.361Z,23.30
2023-10-20T03:35:00.345Z,25.20
2023-10-20T03:36:00.338Z,24.20
2023-10-20T03:37:00.322Z,24.30
2023-10-20T03:38:00.317Z,21.30
2023-10-20T03:39:00.305Z,26.50
2023-10-20T03:40:00.285Z,25.30
2023-10-20T03:41:00.278Z,23.80
2023-10-20T03:42:00.273Z,22.80
2023-10-20T03:43:00.277Z,21.90
2023-10-20T03:44:01.226Z,24.30
2023-10-20T03:45:00.233Z,26.50
2023-10-20T03:46:00.239Z,24.00
2023-10-20T03:47:00.218Z,23.00
2023-10-20T03:48:00.292Z,25.80
2023-10-20T03:49:00.190Z,25.60
2023-10-20T03:50:00.171Z,24.90
2023-10-20T03:51:00.166Z,24.10
2023-10-20T03:52:00.161Z,24.30
2023-10-20T03:53:00.147Z,24.10
2023-10-20T03:54:00.163Z,25.10
2023-10-20T03:55:00.135Z,24.80
2023-10-20T03:56:00.108Z,23.10
2023-10-20T03:57:00.112Z,29.90
2023-10-20T03:58:00.084Z,24.00
2023-10-20T03:59:00.075Z,24.40
2023-10-20T04:00:00.072Z,27.30
2023-10-20T04:01:00.064Z,24.30
2023-10-20T04:02:00.100Z,24.90
2023-10-20T04:03:00.096Z,20.50
2023-10-20T04:04:00.052Z,23.60
2023-10-20T04:05:00.007Z,25.50
2023-10-20T04:06:00.008Z,23.50
2023-10-20T04:06:59.997Z,25.70
2023-10-20T04:08:00.010Z,25.60
2023-10-20T04:08:59.964Z,26.50
2023-10-20T04:09:59.948Z,26.90
2023-10-20T04:10:59.955Z,26.00
2023-10-20T04:11:59.922Z,23.90
2023-10-20T04:12:59.918Z,25.20
2023-10-20T04:13:59.902Z,23.80
2023-10-20T04:14:59.907Z,22.80
2023-10-20T04:15:59.949Z,26.90
2023-10-20T04:16:59.869Z,22.20
2023-10-20T04:17:59.924Z,23.10
2023-10-20T04:18:59.858Z,24.90
2023-10-20T04:19:59.850Z,23.10
2023-10-20T04:20:59.833Z,24.80
2023-10-20T04:21:59.813Z,23.80
2023-10-20T04:22:59.810Z,21.80
2023-10-20T04:23:59.793Z,22.90
2023-10-20T04:24:59.797Z,24.70
2023-10-20T04:25:59.773Z,23.90
2023-10-20T04:26:59.770Z,20.70
2023-10-20T04:27:59.793Z,23.30
2023-10-20T04:28:59.749Z,20.60
2023-10-20T04:29:59.729Z,22.40
2023-10-20T04:30:59.822Z,22.40
2023-10-20T04:31:59.749Z,21.70
2023-10-20T04:32:59.800Z,22.40
2023-10-20T04:33:59.694Z,24.60
2023-10-20T04:34:59.667Z,24.10
2023-10-20T04:35:59.655Z,20.50
2023-10-20T04:36:59.644Z,21.10
2023-10-20T04:37:59.628Z,22.20
2023-10-20T04:38:59.632Z,24.70
2023-10-20T04:39:59.643Z,22.80
2023-10-20T04:40:59.600Z,21.20
2023-10-20T04:41:59.584Z,23.80
2023-10-20T04:42:59.600Z,22.80
2023-10-20T04:43:59.582Z,21.90
2023-10-20T04:44:59.561Z,22.70
2023-10-20T04:45:59.625Z,23.30
2023-10-20T04:46:59.547Z,23.50
2023-10-20T04:47:59.632Z,23.80
2023-10-20T04:48:59.508Z,24.50
2023-10-20T04:49:59.493Z,21.70
2023-10-20T04:50:59.490Z,23.90
2023-10-20T04:51:59.472Z,22.50
2023-10-20T04:52:59.659Z,23.00
2023-10-20T04:53:59.449Z,23.20
2023-10-20T04:54:59.441Z,21.10
2023-10-20T04:55:59.438Z,23.60
2023-10-20T04:56:59.458Z,20.40
2023-10-20T04:57:59.488Z,20.90
2023-10-20T04:58:59.444Z,21.80
2023-10-20T04:59:59.379Z,19.90
2023-10-20T05:00:59.468Z,19.00
2023-10-20T05:01:59.384Z,18.30
2023-10-20T05:02:59.390Z,16.10
2023-10-20T05:03:59.729Z,17.00
2023-10-20T05:04:59.332Z,16.20
2023-10-20T05:05:59.316Z,18.40
2023-10-20T05:06:59.983Z,18.80
2023-10-20T05:07:59.905Z,19.60
2023-10-20T05:08:59.291Z,19.70
2023-10-20T05:09:59.277Z,18.50
2023-10-20T05:10:59.329Z,18.00
2023-10-20T05:11:59.264Z,21.80
2023-10-20T05:12:59.241Z,19.40
2023-10-20T05:13:59.247Z,18.10
2023-10-20T05:14:59.213Z,17.90
2023-10-20T05:15:59.282Z,19.50
2023-10-20T05:16:59.217Z,19.70
2023-10-20T05:17:59.271Z,19.20
2023-10-20T05:18:59.166Z,20.60
2023-10-20T05:19:59.154Z,16.30
2023-10-20T05:20:59.174Z,18.60
2023-10-20T05:21:59.146Z,18.90
2023-10-20T05:22:59.127Z,17.20
2023-10-20T05:23:59.113Z,16.40
2023-10-20T05:24:59.119Z,16.10
2023-10-20T05:25:59.102Z,16.40
2023-10-20T05:26:59.080Z,17.00
2023-10-20T05:27:59.078Z,17.30
2023-10-20T05:28:59.055Z,16.40
2023-10-20T05:29:59.057Z,17.30
2023-10-20T05:30:59.057Z,17.30
2023-10-20T05:31:59.073Z,13.60
2023-10-20T05:32:59.107Z,16.50
2023-10-20T05:33:59.000Z,16.10
2023-10-20T05:34:58.999Z,16.60
2023-10-20T05:35:58.982Z,16.00
2023-10-20T05:36:58.972Z,15.50
2023-10-20T05:37:58.963Z,15.90
2023-10-20T05:38:58.958Z,15.30
2023-10-20T05:39:58.988Z,17.10
2023-10-20T05:40:58.933Z,12.90
2023-10-20T05:41:58.928Z,12.80
2023-10-20T05:42:58.922Z,16.80
2023-10-20T05:43:58.933Z,15.60
2023-10-20T05:45:00.537Z,13.00
2023-10-20T05:45:58.916Z,16.00
2023-10-20T05:46:58.880Z,13.40
2023-10-20T05:47:58.971Z,11.90
2023-10-20T05:48:58.915Z,10.80
2023-10-20T05:49:58.843Z,12.50
2023-10-20T05:50:58.837Z,11.50
2023-10-20T05:51:58.858Z,10.60
2023-10-20T05:52:58.833Z,13.80
2023-10-20T05:53:58.815Z,11.00
2023-10-20T05:54:58.786Z,12.40
2023-10-20T05:55:58.790Z,11.60
2023-10-20T05:56:58.766Z,10.00
2023-10-20T05:57:58.769Z,11.70
2023-10-20T05:58:58.739Z,10.70
2023-10-20T05:59:58.745Z,11.70
2023-10-20T06:01:03.363Z,12.90
2023-10-20T06:01:58.713Z,11.30
2023-10-20T06:02:59.529Z,11.80
2023-10-20T06:03:58.785Z,12.40
2023-10-20T06:04:58.675Z,10.10
2023-10-20T06:05:58.695Z,12.30
2023-10-20T06:06:58.653Z,12.90
2023-10-20T06:07:58.654Z,10.80
2023-10-20T06:08:58.632Z,11.00
2023-10-20T06:09:58.634Z,13.50
2023-10-20T06:10:58.615Z,11.70
2023-10-20T06:11:58.625Z,12.50
2023-10-20T06:12:58.599Z,12.50
2023-10-20T06:13:58.582Z,12.70
2023-10-20T06:14:58.570Z,11.80
2023-10-20T06:15:58.591Z,10.20
2023-10-20T06:16:58.556Z,11.50
2023-10-20T06:17:58.728Z,10.90
2023-10-20T06:18:58.546Z,12.10
2023-10-20T06:19:58.517Z,11.00
2023-10-20T06:20:58.502Z,10.90
2023-10-20T06:21:58.506Z,11.10
2023-10-20T06:22:58.476Z,11.30
2023-10-20T06:23:58.479Z,11.30
2023-10-20T06:24:58.454Z,10.50
2023-10-20T06:25:58.457Z,9.60
2023-10-20T06:26:58.445Z,11.40
2023-10-20T06:27:58.428Z,9.60
2023-10-20T06:28:58.412Z,11.20
2023-10-20T06:29:58.396Z,10.90
2023-10-20T06:30:58.396Z,9.90
2023-10-20T06:31:58.390Z,10.70
2023-10-20T06:32:58.453Z,11.30
2023-10-20T06:33:58.354Z,13.60
2023-10-20T06:34:58.337Z,10.50
2023-10-20T06:35:58.346Z,10.20
2023-10-20T06:36:58.324Z,12.20
2023-10-20T06:37:58.335Z,9.60
2023-10-20T06:38:58.322Z,8.10
2023-10-20T06:39:58.310Z,9.20
2023-10-20T06:40:58.275Z,8.30
2023-10-20T06:41:58.276Z,9.50
2023-10-20T06:42:58.246Z,7.70
2023-10-20T06:43:58.252Z,9.40
2023-10-20T06:44:58.238Z,9.40
2023-10-20T06:45:58.259Z,8.00
2023-10-20T06:46:58.200Z,10.40
2023-10-20T06:47:58.261Z,9.20
2023-10-20T06:48:58.175Z,8.50
2023-10-20T06:49:58.183Z,8.00
2023-10-20T06:50:58.171Z,8.30
2023-10-20T06:51:58.145Z,9.90
2023-10-20T06:52:58.156Z,7.20
2023-10-20T06:53:58.175Z,8.00
2023-10-20T06:55:29.035Z,7.10
2023-10-20T06:56:13.193Z,10.40
2023-10-20T06:56:58.112Z,6.20
2023-10-20T06:57:58.124Z,6.20
2023-10-20T06:58:58.079Z,5.50
2023-10-20T06:59:58.072Z,6.10
2023-10-20T07:00:58.132Z,7.20
2023-10-20T07:01:58.035Z,7.00
2023-10-20T07:02:58.114Z,6.20
2023-10-20T07:03:58.084Z,6.30
2023-10-20T07:04:57.999Z,6.40
2023-10-20T07:05:57.989Z,6.90
2023-10-20T07:06:58.645Z,5.10
2023-10-20T07:07:57.976Z,5.70
2023-10-20T07:08:57.968Z,7.30
2023-10-20T07:09:57.965Z,5.20
2023-10-20T07:10:57.982Z,6.70
2023-10-20T07:11:57.932Z,7.60
2023-10-20T07:12:57.939Z,6.00
2023-10-20T07:13:57.914Z,5.80
2023-10-20T07:14:57.920Z,6.60
2023-10-20T07:15:57.931Z,6.90
2023-10-20T07:16:57.869Z,5.50
2023-10-20T07:17:57.918Z,6.90
2023-10-20T07:18:57.846Z,7.10
2023-10-20T07:19:57.834Z,7.50
2023-10-20T07:20:58.965Z,7.30
2023-10-20T07:21:57.811Z,6.10
2023-10-20T07:22:57.814Z,6.80
2023-10-20T07:23:57.790Z,5.90
2023-10-20T07:24:57.778Z,7.80
2023-10-20T07:25:57.764Z,6.30
2023-10-20T07:26:57.753Z,6.70
2023-10-20T07:27:58.640Z,7.90
2023-10-20T07:28:57.736Z,7.30
2023-10-20T07:29:57.730Z,7.70
2023-10-20T07:30:57.715Z,8.10
2023-10-20T07:31:57.831Z,8.60
2023-10-20T07:32:57.805Z,5.90
2023-10-20T07:33:57.675Z,9.40
2023-10-20T07:34:57.666Z,8.10
2023-10-20T07:35:57.661Z,7.40
2023-10-20T07:36:57.680Z,8.20
2023-10-20T07:37:57.630Z,6.60
2023-10-20T07:38:57.623Z,7.50
2023-10-20T07:39:57.610Z,7.70
2023-10-20T07:40:57.602Z,6.80
2023-10-20T07:41:57.604Z,7.50
2023-10-20T07:42:57.582Z,7.30
2023-10-20T07:43:57.564Z,7.10
2023-10-20T07:44:57.562Z,6.60
2023-10-20T07:45:57.590Z,7.40
2023-10-20T07:46:57.553Z,7.00
2023-10-20T07:47:59.790Z,6.20
2023-10-20T07:48:57.532Z,7.20
2023-10-20T07:49:57.498Z,7.10
2023-10-20T07:50:58.430Z,7.40
2023-10-20T07:51:57.496Z,9.30
2023-10-20T07:52:57.469Z,7.30
2023-10-20T07:53:57.461Z,7.00
2023-10-20T07:54:57.482Z,8.30
2023-10-20T07:55:57.475Z,5.90
2023-10-20T07:56:57.428Z,7.30
2023-10-20T07:57:57.411Z,7.90
2023-10-20T07:58:57.406Z,5.50
2023-10-20T07:59:57.426Z,5.90
2023-10-20T08:00:57.439Z,7.50
2023-10-20T08:01:57.376Z,9.50
2023-10-20T08:02:57.648Z,7.10
2023-10-20T08:03:57.620Z,6.20
2023-10-20T08:04:57.516Z,6.30
2023-10-20T08:05:57.648Z,5.70
2023-10-20T08:06:57.665Z,6.60
2023-10-20T08:07:57.302Z,6.90
2023-10-20T08:08:57.285Z,5.40
2023-10-20T08:09:57.301Z,6.50
2023-10-20T08:10:57.273Z,5.40
2023-10-20T08:11:57.259Z,6.30
2023-10-20T08:12:57.252Z,5.60
2023-10-20T08:13:57.236Z,5.30
2023-10-20T08:14:57.250Z,5.70
2023-10-20T08:15:57.302Z,6.70
2023-10-20T08:16:57.607Z,6.20
2023-10-20T08:17:57.298Z,5.70
2023-10-20T08:18:57.187Z,4.90
2023-10-20T08:19:57.197Z,5.30
2023-10-20T08:20:57.157Z,5.20
2023-10-20T08:21:57.147Z,4.90
2023-10-20T08:22:57.139Z,5.30
2023-10-20T08:23:57.167Z,4.20
2023-10-20T08:24:57.111Z,5.20
2023-10-20T08:25:57.104Z,5.20
2023-10-20T08:26:57.092Z,5.40
2023-10-20T08:27:57.082Z,4.30
2023-10-20T08:28:57.073Z,4.40
2023-10-20T08:29:57.122Z,6.10
2023-10-20T08:30:57.100Z,3.80
2023-10-20T08:31:57.038Z,5.80
2023-10-20T08:32:57.106Z,4.20
2023-10-20T08:33:57.024Z,4.10
2023-10-20T08:34:57.000Z,4.60
2023-10-20T08:35:56.995Z,4.20
2023-10-20T08:36:56.978Z,5.20
2023-10-20T08:37:56.994Z,4.10
2023-10-20T08:38:56.964Z,4.00
2023-10-20T08:39:56.960Z,4.50
2023-10-20T08:41:12.594Z,3.40
2023-10-20T08:41:56.955Z,3.70
2023-10-20T08:42:56.925Z,4.00
2023-10-20T08:43:56.940Z,3.60
2023-10-20T08:44:56.908Z,3.60
2023-10-20T08:45:57.074Z,2.90
2023-10-20T08:46:56.882Z,4.20
2023-10-20T08:47:56.972Z,3.70
2023-10-20T08:48:56.955Z,3.10
2023-10-20T08:49:56.847Z,3.00
2023-10-20T08:50:56.856Z,3.00
2023-10-20T08:51:56.831Z,3.50
2023-10-20T08:52:56.824Z,2.60
2023-10-20T08:53:56.834Z,2.60
2023-10-20T08:54:56.784Z,2.40
2023-10-20T08:55:56.776Z,3.60
2023-10-20T08:56:56.776Z,3.20
2023-10-20T08:57:56.756Z,3.10
2023-10-20T08:58:56.747Z,2.70
2023-10-20T08:59:56.747Z,2.50
2023-10-20T09:00:58.905Z,3.30
2023-10-20T09:01:56.743Z,2.80
2023-10-20T09:02:56.793Z,2.30
2023-10-20T09:03:56.845Z,2.70
2023-10-20T09:04:56.681Z,2.80
2023-10-20T09:05:56.692Z,2.50
2023-10-20T09:06:56.663Z,2.60
2023-10-20T09:07:56.650Z,3.80
2023-10-20T09:08:56.645Z,2.60
2023-10-20T09:09:56.622Z,3.30
2023-10-20T09:10:56.676Z,2.30
2023-10-20T09:11:56.642Z,2.40
2023-10-20T09:12:56.583Z,2.10
2023-10-20T09:13:56.582Z,2.40
2023-10-20T09:14:56.595Z,2.80
2023-10-20T09:15:56.600Z,2.60
2023-10-20T09:16:56.551Z,2.20
2023-10-20T09:17:56.638Z,2.60
2023-10-20T09:18:56.540Z,2.80
2023-10-20T09:19:56.534Z,2.10
2023-10-20T09:20:57.345Z,2.40
2023-10-20T09:21:58.955Z,5.00
2023-10-20T09:22:56.476Z,2.50
2023-10-20T09:23:56.591Z,3.00
2023-10-20T09:24:56.473Z,2.10
2023-10-20T09:25:56.448Z,2.10
2023-10-20T09:26:56.485Z,1.70
2023-10-20T09:27:56.429Z,1.60
2023-10-20T09:28:56.425Z,3.30
2023-10-20T09:29:56.448Z,2.00
2023-10-20T09:30:56.412Z,1.80
2023-10-20T09:31:56.385Z,2.50
2023-10-20T09:32:56.404Z,2.00
2023-10-20T09:33:56.415Z,2.00
2023-10-20T09:34:59.039Z,2.80
2023-10-20T09:35:56.411Z,2.00
2023-10-20T09:36:56.321Z,2.00
2023-10-20T09:37:56.330Z,1.70
2023-10-20T09:38:56.323Z,1.70
2023-10-20T09:39:56.299Z,1.70
2023-10-20T09:40:56.278Z,1.50
2023-10-20T09:41:56.302Z,1.60
2023-10-20T09:42:56.959Z,2.60
2023-10-20T09:43:56.293Z,1.70
2023-10-20T09:44:56.337Z,3.60
2023-10-20T09:45:56.226Z,2.40
2023-10-20T09:46:56.309Z,1.60
2023-10-20T09:47:56.261Z,2.00
2023-10-20T09:48:56.191Z,1.60
2023-10-20T09:49:56.190Z,2.80
2023-10-20T09:50:56.389Z,1.60
2023-10-20T09:51:56.310Z,1.40
2023-10-20T09:52:56.154Z,2.00
2023-10-20T09:53:56.137Z,1.80
2023-10-20T09:55:56.133Z,1.40
2023-10-20T09:56:56.135Z,1.90
2023-10-20T09:57:56.108Z,1.40
2023-10-20T09:58:56.097Z,1.40
2023-10-20T09:59:56.164Z,2.00
2023-10-20T10:00:56.089Z,1.60
2023-10-20T10:01:56.075Z,1.40
2023-10-20T10:02:56.131Z,1.40
2023-10-20T10:03:56.077Z,2.90
2023-10-20T10:04:56.012Z,1.40
2023-10-20T10:05:56.096Z,2.70
2023-10-20T10:06:56.010Z,1.30
2023-10-20T10:07:55.984Z,4.30
2023-10-20T10:08:55.986Z,1.70
2023-10-20T10:09:55.962Z,2.20
2023-10-20T10:10:55.953Z,1.60
2023-10-20T10:11:56.338Z,1.70
2023-10-20T10:12:55.953Z,1.80
2023-10-20T10:13:56.018Z,4.70
2023-10-20T10:14:56.958Z,1.70
2023-10-20T10:15:57.837Z,2.00
2023-10-20T10:16:55.963Z,1.70
2023-10-20T10:17:56.033Z,1.80
2023-10-20T10:18:55.850Z,1.60
2023-10-20T10:19:55.845Z,3.10
2023-10-20T10:20:55.896Z,2.70
2023-10-20T10:21:55.826Z,2.20
2023-10-20T10:22:55.813Z,1.70
2023-10-20T10:23:55.804Z,1.50
2023-10-20T10:24:55.842Z,4.40
2023-10-20T10:25:55.812Z,3.10
2023-10-20T10:26:56.016Z,2.00
2023-10-20T10:27:55.760Z,2.00
2023-10-20T10:28:55.747Z,1.70
2023-10-20T10:29:55.810Z,1.40
2023-10-20T10:30:55.796Z,1.60
2023-10-20T10:32:08.825Z,1.70
2023-10-20T10:32:55.766Z,1.90
2023-10-20T10:33:55.822Z,1.80
2023-10-20T10:34:57.954Z,1.70
2023-10-20T10:35:55.742Z,1.50
2023-10-20T10:36:55.656Z,1.50
2023-10-20T10:37:55.649Z,2.10
2023-10-20T10:38:55.708Z,1.60
2023-10-20T10:39:55.641Z,1.10
2023-10-20T10:40:55.613Z,1.50
2023-10-20T10:41:55.653Z,1.70
2023-10-20T10:42:55.593Z,2.50
2023-10-20T10:43:55.729Z,1.70
2023-10-20T10:44:55.608Z,3.00
2023-10-20T10:45:55.633Z,2.10
2023-10-20T10:46:55.599Z,1.40
2023-10-20T10:47:55.584Z,1.50
2023-10-20T10:48:55.533Z,1.70
2023-10-20T10:49:55.529Z,2.00
2023-10-20T10:50:55.599Z,1.60
2023-10-20T10:51:55.502Z,2.20
2023-10-20T10:52:55.480Z,1.70
2023-10-20T10:53:55.554Z,2.30
2023-10-20T10:54:55.459Z,2.50
2023-10-20T10:55:55.773Z,2.50
2023-10-20T10:56:57.443Z,2.20
2023-10-20T10:57:55.441Z,2.10
2023-10-20T10:58:55.429Z,2.30
2023-10-20T10:59:55.407Z,1.70
2023-10-20T11:00:55.470Z,2.80
2023-10-20T11:01:55.386Z,2.10
2023-10-20T11:02:55.412Z,2.80
2023-10-20T11:03:55.512Z,1.50
2023-10-20T11:04:55.347Z,1.80
2023-10-20T11:05:55.378Z,1.70
2023-10-20T11:06:55.324Z,1.60
2023-10-20T11:07:55.329Z,1.60
2023-10-20T11:08:55.376Z,1.90
2023-10-20T11:09:55.293Z,1.60
2023-10-20T11:10:55.285Z,2.50
2023-10-20T11:11:55.311Z,1.50
2023-10-20T11:12:55.276Z,1.60
2023-10-20T11:13:55.288Z,1.70
2023-10-20T11:14:55.278Z,3.60
2023-10-20T11:15:55.231Z,1.70
2023-10-20T11:16:55.245Z,1.90
2023-10-20T11:17:55.272Z,1.60
2023-10-20T11:18:55.199Z,1.70
2023-10-20T11:19:55.186Z,1.60
2023-10-20T11:20:55.203Z,1.60
2023-10-20T11:21:55.172Z,1.60
2023-10-20T11:22:55.156Z,1.30
2023-10-20T11:23:55.165Z,2.40
2023-10-20T11:24:55.142Z,2.20
2023-10-20T11:25:55.159Z,2.90
2023-10-20T11:26:55.163Z,1.90
2023-10-20T11:27:55.098Z,1.50
2023-10-20T11:28:55.101Z,2.50
2023-10-20T11:29:59.286Z,1.50
2023-10-20T11:30:55.117Z,1.50
2023-10-20T11:31:55.053Z,1.60
2023-10-20T11:32:55.283Z,1.60
2023-10-20T11:33:55.108Z,1.40
2023-10-20T11:34:55.024Z,1.50
2023-10-20T11:35:55.262Z,1.70
2023-10-20T11:36:54.998Z,1.90
2023-10-20T11:37:54.988Z,1.60
2023-10-20T11:38:55.027Z,1.40
2023-10-20T11:39:54.960Z,1.90
2023-10-20T11:40:54.966Z,1.50
2023-10-20T11:41:55.012Z,1.70
2023-10-20T11:42:54.928Z,1.30
2023-10-20T11:43:54.920Z,1.60
2023-10-20T11:44:54.971Z,1.30
2023-10-20T11:45:54.936Z,1.40
2023-10-20T11:46:54.896Z,1.40
2023-10-20T11:47:54.951Z,1.40
2023-10-20T11:48:55.467Z,1.20
2023-10-20T11:49:54.867Z,1.40
2023-10-20T11:50:54.890Z,2.30
2023-10-20T11:51:54.836Z,4.80
2023-10-20T11:52:54.824Z,5.50
2023-10-20T11:53:54.850Z,3.30
2023-10-20T11:54:54.808Z,4.40
2023-10-20T11:55:54.794Z,3.80
2023-10-20T11:56:54.801Z,2.50
2023-10-20T11:57:54.773Z,2.60
2023-10-20T11:58:54.779Z,3.30
2023-10-20T11:59:54.809Z,2.40
2023-10-20T12:00:54.734Z,1.40
2023-10-20T12:01:54.766Z,2.30
2023-10-20T12:02:54.750Z,1.30
2023-10-20T12:03:54.843Z,2.60
2023-10-20T12:04:54.695Z,1.60
2023-10-20T12:05:54.796Z,2.70
2023-10-20T12:06:54.671Z,2.80
2023-10-20T12:07:54.663Z,2.10
2023-10-20T12:08:54.725Z,1.90
2023-10-20T12:09:54.644Z,2.20
2023-10-20T12:10:54.652Z,3.50
2023-10-20T12:11:54.701Z,5.00
2023-10-20T12:12:54.617Z,3.30
2023-10-20T12:13:54.607Z,5.90
2023-10-20T12:14:54.600Z,5.20
2023-10-20T12:15:54.577Z,7.60
2023-10-20T12:16:54.590Z,9.40
2023-10-20T12:17:54.657Z,7.30
2023-10-20T12:18:54.544Z,5.60
2023-10-20T12:19:54.563Z,8.50
2023-10-20T12:20:54.541Z,2.60
2023-10-20T12:21:54.515Z,1.40
2023-10-20T12:22:54.506Z,1.90
2023-10-20T12:23:54.492Z,2.40
2023-10-20T12:24:54.500Z,1.90
2023-10-20T12:25:54.474Z,0.90
2023-10-20T12:26:54.469Z,1.40
2023-10-20T12:27:54.459Z,1.90
2023-10-20T12:28:54.438Z,1.20
2023-10-20T12:29:54.543Z,1.80
2023-10-20T12:30:54.509Z,2.30
2023-10-20T12:31:54.504Z,1.10
2023-10-20T12:32:54.489Z,4.60
2023-10-20T12:33:54.383Z,3.80
2023-10-20T12:34:54.374Z,8.90
2023-10-20T12:35:54.416Z,11.50
2023-10-20T12:36:54.351Z,6.80
2023-10-20T12:37:54.338Z,19.00
2023-10-20T12:38:54.369Z,18.20
2023-10-20T12:39:54.327Z,9.70
2023-10-20T12:40:54.299Z,47.50
2023-10-20T12:41:54.325Z,26.00
2023-10-20T12:42:54.298Z,11.10
2023-10-20T12:43:54.269Z,8.70
2023-10-20T12:44:54.283Z,7.40
2023-10-20T12:45:54.266Z,1.60
2023-10-20T12:46:54.243Z,1.60
2023-10-20T12:47:54.308Z,2.30
2023-10-20T12:48:54.362Z,1.80
2023-10-20T12:49:54.212Z,1.90
2023-10-20T12:50:54.265Z,1.30
2023-10-20T12:51:54.183Z,2.10
2023-10-20T12:52:54.167Z,2.70
2023-10-20T12:53:54.218Z,1.90
2023-10-20T12:54:54.156Z,4.10
2023-10-20T12:55:54.153Z,3.10
2023-10-20T12:56:54.153Z,2.10
2023-10-20T12:57:54.122Z,2.20
2023-10-20T12:58:54.102Z,2.60
2023-10-20T12:59:54.159Z,4.00
2023-10-20T13:00:54.085Z,2.50
2023-10-20T13:01:54.184Z,2.40
2023-10-20T13:02:54.188Z,1.60
2023-10-20T13:03:54.124Z,1.40
2023-10-20T13:04:54.038Z,1.20
2023-10-20T13:05:54.084Z,1.40